Time;durP1;ratioP1;P1;durP2;ratioP2;P2;SDS_P1;SDS_P2;PMS_P1;PMS_P2;Temp;Humidity;BMP_temperature;BMP_pressure;BME280_temperature;BME280_humidity;BME280_pressure;Samples;Min_cycle;Max_cycle;Signal;HPM_P1;HPM_P2
2022/04/03 00:00:43;;;;;;;6.97;3.30;;;5.20;77.30;;;2.78;69.14;101104.81;4989669;28;20046;-81
2022/04/03 00:03:10;;;;;;;7.50;3.40;;;5.20;77.00;;;2.71;69.60;101102.59;5000808;28;20126;-81
2022/04/03 00:05:41;;;;;;;6.95;3.28;;;5.20;77.30;;;2.64;70.88;101101.34;5010324;28;20486;-81
2022/04/03 00:08:12;;;;;;;7.03;3.42;;;5.20;77.60;;;2.70;71.35;101102.72;5000324;28;20510;-81
2022/04/03 00:10:45;;;;;;;6.25;3.35;;;5.20;77.80;;;2.65;70.83;101103.09;4990117;28;20050;-81
2022/04/03 00:13:13;;;;;;;6.50;3.40;;;5.20;77.80;;;2.59;70.45;101103.56;5004095;28;20053;-81
2022/04/03 00:15:42;;;;;;;5.32;2.90;;;5.20;77.70;;;2.62;70.69;101103.31;5010253;28;20128;-82
2022/04/03 00:18:10;;;;;;;7.10;3.20;;;5.20;78.20;;;2.66;69.63;101095.88;5012258;28;20073;-82
2022/04/03 00:20:38;;;;;;;5.93;3.20;;;5.20;77.20;;;2.66;69.39;101104.78;4992163;28;20109;-82
2022/04/03 00:23:06;;;;;;;6.00;3.20;;;5.20;77.00;;;2.68;69.82;101102.81;5001519;28;20154;-81
2022/04/03 00:25:41;;;;;;;8.32;3.55;;;5.20;77.00;;;2.72;68.97;101098.06;5008399;28;20056;-81
2022/04/03 00:28:16;;;;;;;7.82;3.08;;;5.20;77.10;;;2.67;68.65;101100.28;4990394;28;20050;-81
2022/04/03 00:30:44;;;;;;;10.45;3.40;;;5.10;76.60;;;2.64;69.42;101106.72;4997098;28;20843;-82
2022/04/03 00:33:11;;;;;;;8.55;3.50;;;5.20;77.10;;;2.67;69.53;101105.66;4990396;28;20050;-82
2022/04/03 00:35:39;;;;;;;5.75;3.08;;;5.20;76.80;;;2.67;69.14;101106.50;4989952;28;20042;-81
2022/04/03 00:38:08;;;;;;;9.00;3.65;;;5.10;76.60;;;2.69;69.48;101109.09;5009895;28;20516;-81
2022/04/03 00:40:37;;;;;;;6.55;3.20;;;5.10;76.80;;;2.63;70.07;101113.09;5008618;28;20406;-81
2022/04/03 00:43:04;;;;;;;9.35;3.45;;;5.10;76.90;;;2.62;69.71;101111.38;5003953;28;20045;-82
2022/04/03 00:45:34;;;;;;;7.80;3.42;;;5.10;77.10;;;2.65;69.12;101108.47;4996202;28;20132;-82
2022/04/03 00:48:04;;;;;;;11.40;3.45;;;5.10;76.80;;;2.50;71.17;101106.97;5001334;28;20045;-81
2022/04/03 00:50:31;;;;;;;6.63;2.97;;;5.10;78.10;;;2.47;70.62;101109.88;5002502;28;20038;-82
2022/04/03 00:52:59;;;;;;;8.73;3.53;;;5.10;78.30;;;2.48;70.66;101106.22;4990081;28;20130;-81
2022/04/03 00:55:28;;;;;;;6.50;3.30;;;5.10;78.00;;;2.49;70.53;101107.91;5000913;28;20038;-81
2022/04/03 00:57:58;;;;;;;8.18;3.72;;;5.10;77.50;;;2.59;69.97;101111.63;4990021;28;20046;-81
2022/04/03 01:00:26;;;;;;;6.70;3.20;;;5.10;77.20;;;2.64;69.64;101106.72;4990491;28;20145;-81
2022/04/03 01:02:53;;;;;;;10.18;3.40;;;5.10;77.50;;;2.56;69.30;101106.47;4990434;28;20069;-82
2022/04/03 01:05:21;;;;;;;7.35;3.20;;;5.10;77.30;;;2.50;71.09;101110.50;4998627;28;20522;-81
2022/04/03 01:07:48;;;;;;;6.55;3.10;;;5.10;78.10;;;2.44;71.64;101104.75;4991251;28;20645;-82
2022/04/03 01:10:15;;;;;;;5.82;3.00;;;5.10;78.70;;;2.39;71.39;101113.13;5000673;28;20046;-80
2022/04/03 01:12:44;;;;;;;7.53;3.38;;;5.10;78.50;;;2.41;72.46;101111.19;5012318;28;20489;-80
2022/04/03 01:15:16;;;;;;;9.00;3.33;;;5.00;78.80;;;2.28;72.89;101111.25;5007499;28;20045;-80
2022/04/03 01:17:44;;;;;;;7.50;3.55;;;5.00;79.40;;;2.30;73.16;101109.34;5013628;28;20053;-80
2022/04/03 01:20:12;;;;;;;7.65;3.50;;;4.90;79.60;;;2.25;73.02;101100.78;5005200;28;20042;-80
2022/04/03 01:22:40;;;;;;;5.47;3.00;;;4.90;79.40;;;2.04;74.28;101113.97;4993953;28;20054;-80
2022/04/03 01:25:10;;;;;;;7.30;3.40;;;4.90;79.60;;;2.05;74.46;101110.31;4995227;28;20049;-80
2022/04/03 01:27:38;;;;;;;7.47;3.53;;;4.80;80.00;;;1.97;74.66;101111.88;5010271;28;20060;-80
2022/04/03 01:30:09;;;;;;;11.98;3.28;;;4.80;80.60;;;1.98;74.57;101111.75;5011525;28;20084;-80
2022/04/03 01:32:36;;;;;;;9.23;3.25;;;4.70;80.50;;;1.90;74.35;101109.63;5011554;28;20048;-82
2022/04/03 01:35:04;;;;;;;7.13;3.47;;;4.70;80.30;;;1.86;75.00;101108.13;5012481;28;20038;-81
2022/04/03 01:37:31;;;;;;;8.90;3.10;;;4.70;80.80;;;1.86;74.96;101104.59;5006578;28;20053;-80
2022/04/03 01:39:59;;;;;;;7.63;3.50;;;4.60;80.90;;;1.93;75.13;101101.34;4992534;28;20117;-80
2022/04/03 01:42:28;;;;;;;7.47;3.47;;;4.70;81.30;;;1.81;74.03;101104.06;4997366;28;20052;-80
2022/04/03 01:44:55;;;;;;;7.95;3.65;;;4.60;80.70;;;1.75;74.88;101098.22;5012701;28;20540;-80
2022/04/03 01:47:23;;;;;;;6.15;3.08;;;4.50;80.80;;;1.81;75.58;101102.28;5002861;28;20044;-80
2022/04/03 01:49:50;;;;;;;5.90;3.13;;;4.50;81.50;;;1.84;75.50;101106.56;5006557;28;20636;-80
2022/04/03 01:52:20;;;;;;;9.02;3.70;;;4.40;81.40;;;1.84;75.90;101107.41;4998639;28;20037;-80
2022/04/03 01:54:48;;;;;;;7.15;3.63;;;4.40;81.80;;;1.71;75.71;101106.59;4993292;28;20507;-80
2022/04/03 01:57:15;;;;;;;8.23;3.65;;;4.40;81.50;;;1.78;76.39;101102.50;4993538;28;20125;-80
2022/04/03 01:59:43;;;;;;;7.85;3.05;;;4.40;81.80;;;1.73;76.22;101107.31;5011479;28;20387;-80
2022/04/03 02:02:11;;;;;;;11.82;3.58;;;4.40;81.90;;;1.71;76.92;101101.22;5012619;28;20070;-80
2022/04/03 02:04:39;;;;;;;5.30;3.22;;;4.40;82.00;;;1.72;75.88;101108.31;5012075;28;20038;-80
2022/04/03 02:07:06;;;;;;;6.20;3.72;;;4.30;82.00;;;1.79;75.29;101104.22;5007943;28;20165;-80
2022/04/03 02:09:34;;;;;;;6.85;3.35;;;4.40;81.40;;;1.69;76.36;101113.91;5011657;28;20050;-80
2022/04/03 02:12:02;;;;;;;6.25;3.22;;;4.40;81.80;;;1.64;76.78;101116.06;5010036;28;20042;-80
2022/04/03 02:14:29;;;;;;;7.63;3.25;;;4.30;81.90;;;1.50;77.73;101112.53;5012414;28;20049;-80
2022/04/03 02:17:00;;;;;;;10.25;3.63;;;4.30;82.40;;;1.39;78.51;101115.19;4993348;28;20039;-80
2022/04/03 02:19:27;;;;;;;6.20;3.58;;;4.30;82.80;;;1.29;78.86;101111.41;4992409;28;20053;-80
2022/04/03 02:21:54;;;;;;;7.15;3.50;;;4.20;82.90;;;1.15;80.07;101110.59;5008525;28;20064;-80
2022/04/03 02:24:21;;;;;;;8.02;4.03;;;4.20;83.30;;;1.15;80.26;101109.72;4995858;28;20469;-80
2022/04/03 02:26:48;;;;;;;6.57;3.55;;;4.10;83.50;;;1.18;79.92;101109.50;4992607;28;20517;-80
2022/04/03 02:29:16;;;;;;;8.63;3.58;;;4.10;83.70;;;1.07;79.79;101112.13;4992499;28;20079;-80
2022/04/03 02:31:43;;;;;;;8.60;3.92;;;4.00;83.60;;;1.15;79.31;101109.72;4991961;28;20125;-80
2022/04/03 02:34:11;;;;;;;6.75;3.67;;;4.00;83.30;;;1.20;79.81;101115.63;4992452;28;20483;-80
2022/04/03 02:36:40;;;;;;;8.35;4.03;;;3.90;83.30;;;1.16;79.88;101117.69;5011944;28;20038;-80
2022/04/03 02:39:07;;;;;;;8.13;3.78;;;4.00;83.60;;;1.10;78.96;101110.03;4994864;28;20038;-80
2022/04/03 02:41:35;;;;;;;7.95;3.83;;;4.00;83.20;;;1.27;78.83;101113.34;4990371;28;20050;-80
2022/04/03 02:44:03;;;;;;;7.43;4.32;;;3.90;83.20;;;1.25;78.88;101115.28;4991612;28;20042;-80
2022/04/03 02:46:31;;;;;;;7.38;3.88;;;3.90;83.40;;;1.26;78.26;101117.03;4992175;28;20141;-80
2022/04/03 02:48:58;;;;;;;8.40;3.53;;;4.00;83.30;;;1.24;79.09;101108.19;5009942;28;20052;-80
2022/04/03 02:51:27;;;;;;;10.57;4.30;;;3.90;83.40;;;1.22;78.80;101115.50;4996509;28;20077;-80
2022/04/03 02:53:54;;;;;;;7.35;3.90;;;3.90;83.30;;;1.25;79.29;101115.28;4992064;28;20049;-80
2022/04/03 02:56:21;;;;;;;8.90;4.00;;;4.00;83.70;;;1.27;78.66;101114.22;4992081;28;20845;-80
2022/04/03 02:58:49;;;;;;;8.50;3.47;;;3.90;83.80;;;1.21;78.23;101114.66;5005577;28;20092;-80
2022/04/03 03:01:16;;;;;;;7.45;3.70;;;3.90;83.70;;;1.23;78.81;101110.03;5010027;28;20030;-80
2022/04/03 03:03:43;;;;;;;9.20;3.95;;;3.90;83.60;;;1.21;78.80;101109.28;5011399;28;20041;-80
2022/04/03 03:06:10;;;;;;;9.25;3.78;;;3.90;83.70;;;1.32;77.65;101108.53;4993504;28;20042;-80
2022/04/03 03:08:39;;;;;;;8.75;3.78;;;3.90;82.60;;;1.26;78.61;101111.66;4991816;28;20065;-80
2022/04/03 03:11:06;;;;;;;7.43;3.45;;;4.00;83.20;;;1.01;81.05;101120.56;5007709;28;20427;-80
2022/04/03 03:13:35;;;;;;;6.47;3.35;;;3.90;84.10;;;0.84;81.86;101111.03;5011138;28;20042;-81
2022/04/03 03:16:02;;;;;;;9.90;3.22;;;3.90;84.60;;;0.73;83.24;101112.63;4995925;28;20050;-80
2022/04/03 03:18:29;;;;;;;5.80;3.38;;;3.80;85.00;;;0.69;83.73;101108.47;4992685;28;20048;-80
2022/04/03 03:21:00;;;;;;;7.65;3.85;;;3.70;85.50;;;0.64;83.68;101110.59;4990790;28;20459;-80
2022/04/03 03:23:29;;;;;;;8.25;3.78;;;3.70;85.60;;;0.57;83.71;101112.84;5004754;28;20128;-80
2022/04/03 03:25:58;;;;;;;6.72;3.58;;;3.70;85.50;;;0.67;83.75;101113.06;5010077;28;20057;-80
2022/04/03 03:28:26;;;;;;;11.75;3.90;;;3.60;85.60;;;0.49;84.40;101117.00;4998071;28;20149;-80
2022/04/03 03:30:53;;;;;;;8.90;4.13;;;3.50;85.70;;;0.46;84.62;101112.72;4990664;28;20043;-80
2022/04/03 03:33:20;;;;;;;7.97;3.90;;;3.50;86.10;;;0.50;84.58;101122.25;4996888;28;20056;-80
2022/04/03 03:35:47;;;;;;;10.05;4.10;;;3.50;86.10;;;0.37;85.22;101116.03;4995926;28;20170;-80
2022/04/03 03:38:15;;;;;;;7.70;4.25;;;3.50;86.50;;;0.30;85.63;101123.59;4991132;28;20498;-80
2022/04/03 03:40:42;;;;;;;8.73;4.47;;;3.40;86.60;;;0.38;85.75;101123.97;5005402;28;20421;-80
2022/04/03 03:43:11;;;;;;;6.45;3.70;;;3.40;86.80;;;0.36;85.11;101120.53;5010180;28;20042;-80
2022/04/03 03:45:40;;;;;;;7.95;3.90;;;3.30;86.60;;;0.33;85.29;101122.56;5010456;28;20044;-80
2022/04/03 03:48:10;;;;;;;8.63;3.95;;;3.20;86.60;;;0.38;84.88;101125.75;5003312;28;20506;-80
2022/04/03 03:50:38;;;;;;;7.97;4.03;;;3.30;87.00;;;0.22;85.50;101131.28;4990214;28;20049;-80
2022/04/03 03:53:05;;;;;;;8.80;4.68;;;3.20;86.80;;;0.15;85.42;101135.34;4991037;28;20048;-80
2022/04/03 03:55:36;;;;;;;8.82;3.90;;;3.20;86.70;;;0.12;85.07;101135.56;4991122;28;20038;-80
2022/04/03 03:58:03;;;;;;;7.05;3.58;;;3.20;86.40;;;0.17;84.87;101130.72;4995822;28;20066;-80
2022/04/03 04:00:32;;;;;;;9.23;3.83;;;3.20;86.40;;;0.21;84.73;101129.59;4997184;28;20065;-80
2022/04/03 04:03:00;;;;;;;10.20;4.22;;;3.10;86.50;;;0.24;84.56;101124.00;4994524;28;20095;-80
2022/04/03 04:05:27;;;;;;;6.70;3.80;;;3.10;86.70;;;0.08;84.75;101124.19;5010424;28;20054;-80
2022/04/03 04:07:54;;;;;;;8.75;4.03;;;3.10;86.40;;;0.10;84.77;101127.63;5007337;28;20120;-80
2022/04/03 04:10:21;;;;;;;7.70;3.70;;;3.10;86.40;;;0.06;84.88;101142.16;4989934;28;20511;-80
2022/04/03 04:12:51;;;;;;;11.23;4.75;;;3.10;86.60;;;0.09;85.34;101138.41;4996133;28;20048;-80
2022/04/03 04:15:19;;;;;;;8.03;4.50;;;3.00;86.60;;;0.01;84.96;101138.94;5008851;28;20457;-80
2022/04/03 04:17:49;;;;;;;9.57;4.30;;;3.00;86.50;;;-0.03;85.84;101143.63;5004961;28;20042;-80
2022/04/03 04:20:21;;;;;;;8.05;3.90;;;3.00;86.70;;;0.03;85.73;101142.34;4989426;28;20514;-80
2022/04/03 04:22:50;;;;;;;8.00;4.20;;;3.00;86.90;;;-0.01;85.86;101147.06;4990511;28;20082;-80
2022/04/03 04:25:19;;;;;;;8.23;4.43;;;2.90;87.10;;;-0.11;86.28;101145.94;4993635;28;20041;-80
2022/04/03 04:27:47;;;;;;;6.80;3.92;;;2.90;87.30;;;-0.01;86.24;101141.69;5010309;28;20070;-80
2022/04/03 04:30:17;;;;;;;7.82;4.60;;;2.90;87.60;;;-0.14;86.06;101150.63;4997350;28;20049;-81
2022/04/03 04:32:45;;;;;;;8.93;4.60;;;2.90;87.30;;;-0.14;85.94;101156.84;4990430;28;20049;-80
2022/04/03 04:35:14;;;;;;;10.27;4.45;;;2.80;87.20;;;-0.22;86.50;101160.00;4999881;28;20052;-80
2022/04/03 04:37:42;;;;;;;8.77;4.63;;;2.90;87.20;;;-0.20;86.53;101158.09;5007063;28;20105;-80
2022/04/03 04:40:11;;;;;;;9.05;4.60;;;2.80;87.30;;;-0.27;86.19;101159.44;5002851;28;20056;-80
2022/04/03 04:42:41;;;;;;;7.05;4.00;;;2.80;87.10;;;-0.35;86.76;101158.22;5008564;28;20140;-80
2022/04/03 04:45:10;;;;;;;9.70;4.53;;;2.80;87.10;;;-0.44;87.33;101170.38;5006923;28;20046;-80
2022/04/03 04:47:38;;;;;;;10.57;4.60;;;2.80;87.00;;;-0.34;86.81;101159.94;5008307;28;20064;-80
2022/04/03 04:50:08;;;;;;;9.43;4.82;;;2.70;87.20;;;-0.45;87.44;101164.16;4998849;28;20046;-80
2022/04/03 04:52:43;;;;;;;8.77;4.55;;;2.70;87.10;;;-0.43;87.15;101172.09;4990169;28;20055;-80
2022/04/03 04:55:11;;;;;;;10.30;4.88;;;2.70;87.20;;;-0.54;87.79;101172.75;4991367;28;20419;-83
2022/04/03 04:57:40;;;;;;;13.10;4.80;;;2.80;87.40;;;-0.54;87.66;101164.75;4988692;28;20046;-80
2022/04/03 05:00:10;;;;;;;11.68;4.75;;;2.70;87.50;;;-0.54;87.97;101174.59;4997824;28;20080;-84
2022/04/03 05:02:40;;;;;;;9.68;4.70;;;2.70;87.60;;;-0.51;88.28;101177.06;5009623;28;20038;-83
2022/04/03 05:05:08;;;;;;;11.32;4.80;;;2.70;87.60;;;-0.41;87.64;101175.53;5007823;28;20141;-85
2022/04/03 05:07:37;;;;;;;9.32;4.72;;;2.60;87.70;;;-0.45;87.45;101180.22;5008845;28;20048;-84
2022/04/03 05:10:05;;;;;;;14.32;6.22;;;2.60;87.50;;;-0.49;87.40;101178.69;5006965;28;20038;-81
2022/04/03 05:12:33;;;;;;;11.05;4.90;;;2.60;87.60;;;-0.56;87.90;101180.03;5009573;28;20065;-82
2022/04/03 05:15:00;;;;;;;11.23;5.25;;;2.60;87.80;;;-0.56;88.42;101188.03;4998597;28;20113;-82
2022/04/03 05:17:28;;;;;;;12.30;5.93;;;2.60;87.90;;;-0.56;88.02;101190.72;4989645;28;20084;-81
2022/04/03 05:19:55;;;;;;;11.70;5.65;;;2.60;87.70;;;-0.62;88.15;101191.09;4998135;28;20038;-81
2022/04/03 05:22:23;;;;;;;8.57;5.18;;;2.50;88.00;;;-0.65;88.66;101191.28;5009559;28;20042;-81
2022/04/03 05:24:54;;;;;;;11.00;5.28;;;2.50;88.10;;;-0.64;88.96;101195.69;5001573;28;20454;-81
2022/04/03 05:27:22;;;;;;;;;;;2.50;88.20;;;-0.72;88.95;101198.84;4990345;28;20050;-81
2022/04/03 05:29:49;;;;;;;10.48;5.50;;;2.50;88.10;;;-0.73;89.08;101206.94;4995636;28;19925;-81
2022/04/03 05:32:27;;;;;;;10.02;5.38;;;2.50;88.20;;;-0.58;89.43;101208.66;5007932;28;20054;-82
2022/04/03 05:34:54;;;;;;;11.65;5.63;;;2.50;88.60;;;-0.58;89.07;101211.34;4999511;28;20049;-81
2022/04/03 05:37:22;;;;;;;11.35;5.43;;;2.50;88.50;;;-0.52;88.73;101204.75;5007829;28;20749;-80
2022/04/03 05:39:51;;;;;;;13.10;5.90;;;2.50;88.80;;;-0.47;88.33;101203.50;5006057;28;20467;-80
2022/04/03 05:42:20;;;;;;;10.75;5.70;;;2.50;88.50;;;-0.42;87.91;101212.13;5006622;28;20042;-81
2022/04/03 05:44:49;;;;;;;11.43;5.85;;;2.50;88.30;;;-0.40;87.40;101209.31;5007370;28;20030;-81
2022/04/03 05:47:17;;;;;;;12.10;6.00;;;2.50;88.00;;;-0.38;86.99;101217.25;5007998;28;20129;-81
2022/04/03 05:49:44;;;;;;;11.70;6.68;;;2.60;87.70;;;-0.38;85.98;101217.25;5005693;28;20391;-81
2022/04/03 05:52:12;;;;;;;11.30;6.07;;;2.60;87.00;;;-0.38;85.82;101207.44;5007326;28;20041;-82
2022/04/03 05:54:39;;;;;;;12.40;6.40;;;2.60;86.70;;;-0.40;86.55;101210.19;5006689;28;20120;-81
2022/04/03 05:57:07;;;;;;;9.52;5.82;;;2.70;87.00;;;-0.30;85.90;101214.97;5009933;28;20121;-81
2022/04/03 05:59:36;;;;;;;11.70;5.93;;;2.70;86.80;;;-0.24;86.19;101214.56;5011643;28;20034;-81
2022/04/03 06:02:05;;;;;;;15.93;6.50;;;2.70;87.00;;;-0.16;85.44;101212.25;5010971;28;20062;-81
2022/04/03 06:04:33;;;;;;;12.65;6.50;;;2.80;86.60;;;-0.11;85.33;101220.84;5009038;28;20068;-81
2022/04/03 06:07:00;;;;;;;15.80;6.70;;;2.80;86.40;;;-0.05;83.80;101220.47;5010416;28;20144;-81
2022/04/03 06:09:27;;;;;;;13.70;6.72;;;2.80;85.80;;;-0.06;84.65;101221.44;5004123;28;20066;-81
2022/04/03 06:11:54;;;;;;;15.23;6.68;;;2.90;86.20;;;-0.01;84.28;101219.28;5010609;28;20057;-82
2022/04/03 06:14:22;;;;;;;11.60;6.40;;;2.90;86.10;;;0.10;84.08;101217.75;5014082;28;20034;-80
2022/04/03 06:16:51;;;;;;;10.00;6.72;;;2.90;86.00;;;0.22;83.72;101218.78;5015964;28;20048;-80
2022/04/03 06:19:18;;;;;;;14.80;6.57;;;3.00;85.90;;;0.21;83.72;101219.72;5009203;28;20133;-80
2022/04/03 06:21:47;;;;;;;12.70;7.07;;;3.00;85.70;;;0.30;82.79;101219.97;4991582;28;20129;-80
2022/04/03 06:24:15;;;;;;;12.02;6.70;;;3.10;85.40;;;0.49;83.27;101224.13;4992113;28;20042;-81
2022/04/03 06:26:42;;;;;;;10.82;6.15;;;3.20;85.70;;;0.56;81.46;101226.28;4992599;28;20047;-81
2022/04/03 06:29:09;;;;;;;12.05;6.03;;;3.20;85.30;;;0.60;82.09;101226.94;5002645;28;20088;-81
2022/04/03 06:31:37;;;;;;;15.00;6.93;;;3.30;85.50;;;0.75;82.47;101219.69;5009144;28;20046;-81
2022/04/03 06:34:05;;;;;;;13.75;6.15;;;3.30;85.50;;;0.85;81.96;101227.97;4995427;28;20125;-80
2022/04/03 06:36:35;;;;;;;12.45;6.32;;;3.40;85.50;;;0.98;81.57;101220.81;5008952;28;20085;-80
2022/04/03 06:39:05;;;;;;;12.90;6.38;;;3.50;85.50;;;1.02;80.60;101224.97;4993922;28;20070;-80
2022/04/03 06:41:34;;;;;;;15.10;7.13;;;3.50;85.00;;;1.06;81.51;101226.47;4991711;28;20124;-80
2022/04/03 06:44:01;;;;;;;12.85;7.00;;;3.60;85.30;;;1.14;81.63;101226.84;5006054;28;20050;-81
2022/04/03 06:46:28;;;;;;;16.98;6.75;;;3.70;85.50;;;1.23;80.45;101221.78;5000364;28;20125;-82
2022/04/03 06:48:56;;;;;;;12.95;6.30;;;3.70;84.90;;;1.33;79.10;101225.53;4995381;28;20038;-81
2022/04/03 06:51:24;;;;;;;14.48;7.10;;;3.80;84.10;;;1.44;79.23;101222.97;4996862;28;20061;-81
2022/04/03 06:53:52;;;;;;;13.55;6.70;;;3.90;83.90;;;1.53;79.02;101232.19;5006430;28;20042;-80
2022/04/03 06:56:19;;;;;;;13.40;6.47;;;3.90;83.70;;;1.64;78.01;101228.72;5006057;28;20072;-82
2022/04/03 06:58:46;;;;;;;12.98;6.32;;;4.00;83.30;;;1.76;77.70;101225.19;5004310;28;20545;-81
2022/04/03 07:01:14;;;;;;;15.50;6.20;;;4.10;83.40;;;1.89;77.75;101227.84;5010710;28;20129;-81
2022/04/03 07:03:41;;;;;;;10.32;5.47;;;4.20;83.60;;;2.00;74.71;101229.75;5010341;28;20413;-82
2022/04/03 07:06:08;;;;;;;10.40;4.72;;;4.20;82.10;;;2.20;73.57;101233.66;5006316;28;20078;-81
2022/04/03 07:08:37;;;;;;;9.52;4.75;;;4.40;81.50;;;2.31;73.13;101226.53;4991166;28;20066;-82
2022/04/03 07:11:04;;;;;;;7.35;4.20;;;4.40;81.00;;;2.37;71.24;101216.31;4991559;28;20066;-81
2022/04/03 07:13:32;;;;;;;8.40;4.15;;;4.50;79.70;;;2.52;71.19;101225.91;5006755;28;20054;-82
2022/04/03 07:15:59;;;;;;;8.65;4.30;;;4.60;79.90;;;2.58;70.15;101227.28;5007686;28;20041;-89
2022/04/03 07:18:26;;;;;;;8.88;4.28;;;4.60;79.00;;;2.71;69.86;101226.22;5006151;28;20050;-86
2022/04/03 07:20:53;;;;;;;6.38;4.13;;;4.80;78.70;;;2.86;71.17;101226.06;5005473;28;20042;-78
2022/04/03 07:23:22;;;;;;;6.65;3.75;;;4.80;78.30;;;3.07;71.17;101218.16;5003009;28;20681;-79
2022/04/03 07:25:51;;;;;;;5.75;3.47;;;4.90;79.40;;;3.21;69.93;101211.69;5006557;28;20050;-84
2022/04/03 07:28:18;;;;;;;8.25;3.35;;;5.00;76.90;;;3.35;69.07;101218.69;4996580;28;20867;-83
2022/04/03 07:30:48;;;;;;;9.00;3.20;;;5.00;77.60;;;3.36;67.34;101220.41;4994535;28;20572;-89
2022/04/03 07:33:20;;;;;;;10.05;3.65;;;5.20;76.90;;;3.53;69.02;101222.63;4999350;28;20113;-88
2022/04/03 07:35:48;;;;;;;8.43;3.17;;;5.20;77.60;;;3.62;66.45;101215.66;4990429;28;20046;-89
2022/04/03 07:38:15;;;;;;;6.57;3.70;;;5.30;76.40;;;3.68;68.07;101220.56;5006470;28;20068;-87
2022/04/03 07:40:45;;;;;;;8.70;2.95;;;5.40;76.40;;;3.83;67.70;101224.72;5005018;28;20054;-89
2022/04/03 07:43:16;;;;;;;5.90;2.43;;;5.50;76.80;;;3.98;65.02;101232.50;5008108;28;20038;-91
2022/04/03 07:45:43;;;;;;;5.47;2.50;;;5.60;74.70;;;4.07;66.21;101235.34;4994926;28;20387;-90
2022/04/03 07:48:11;;;;;;;8.25;3.17;;;5.70;76.10;;;4.17;65.98;101230.06;5008592;28;20593;-91
2022/04/03 07:50:40;;;;;;;7.03;3.17;;;5.80;75.70;;;4.28;64.04;101240.81;5003194;28;20116;-87
2022/04/03 07:53:07;;;;;;;7.78;3.40;;;5.90;74.10;;;4.33;62.72;101236.88;5004207;28;20038;-82
2022/04/03 07:55:35;;;;;;;7.32;3.15;;;6.00;73.20;;;4.43;63.81;101240.50;4997077;28;20038;-82
2022/04/03 07:58:02;;;;;;;11.40;2.63;;;6.10;74.60;;;4.49;62.36;101237.31;5006987;28;20105;-81
2022/04/03 08:00:32;;;;;;;10.00;3.50;;;6.20;73.20;;;4.61;63.56;101235.44;5005819;28;20050;-82
2022/04/03 08:03:01;;;;;;;9.68;3.20;;;6.20;73.50;;;4.73;63.11;101233.56;4990768;28;20077;-84
2022/04/03 08:05:29;;;;;;;7.05;2.53;;;6.30;72.30;;;4.82;62.53;101246.28;4990630;28;20046;-84
2022/04/03 08:07:56;;;;;;;5.55;2.67;;;6.40;73.30;;;4.90;63.04;101241.06;5001151;28;20072;-84
2022/04/03 08:10:23;;;;;;;5.43;2.92;;;6.40;72.60;;;4.98;61.64;101246.66;5008401;28;20038;-84
2022/04/03 08:12:52;;;;;;;8.63;2.80;;;6.50;72.70;;;5.02;62.10;101244.56;5010034;28;20146;-76
2022/04/03 08:15:21;;;;;;;6.32;2.70;;;6.60;72.20;;;5.11;60.80;101248.34;5007734;28;20061;-82
2022/04/03 08:17:51;;;;;;;11.98;2.95;;;6.60;72.00;;;5.21;61.69;101252.78;4990478;28;20049;-76
2022/04/03 08:20:22;;;;;;;9.27;2.70;;;6.90;72.00;;;5.45;62.81;101249.00;4990663;28;20047;-78
2022/04/03 08:22:50;;;;;;;5.70;2.72;;;6.80;73.40;;;5.54;60.78;101244.59;4999204;28;20044;-75
2022/04/03 08:25:19;;;;;;;5.75;3.00;;;6.90;72.10;;;5.58;59.57;101246.06;5004216;28;20127;-76
2022/04/03 08:27:50;;;;;;;8.18;3.00;;;7.00;69.70;;;5.68;58.26;101241.56;4989553;28;20112;-76
2022/04/03 08:30:20;;;;;;;8.27;2.58;;;7.10;69.90;;;5.71;58.67;101243.97;4988592;28;20121;-76
2022/04/03 08:32:49;;;;;;;7.70;2.80;;;7.10;70.00;;;5.83;58.55;101251.03;4996119;28;20040;-75
2022/04/03 08:35:18;;;;;;;8.50;2.72;;;7.20;69.00;;;6.10;58.14;101246.03;5008817;28;20041;-75
2022/04/03 08:37:47;;;;;;;6.38;2.70;;;7.30;69.40;;;6.28;58.98;101238.09;5008950;28;20538;-76
2022/04/03 08:40:15;;;;;;;4.70;2.40;;;7.50;70.70;;;6.23;56.85;101236.69;5008832;28;20095;-76
2022/04/03 08:42:42;;;;;;;5.80;2.42;;;7.50;68.80;;;6.26;56.32;101239.13;4994112;28;20117;-76
2022/04/03 08:45:12;;;;;;;6.97;2.63;;;7.60;69.00;;;6.26;56.25;101249.06;4989992;28;20046;-76
2022/04/03 08:47:45;;;;;;;7.70;2.63;;;7.70;66.60;;;6.34;56.15;101248.34;4994975;28;20042;-76
2022/04/03 08:50:14;;;;;;;4.90;2.40;;;7.70;67.90;;;6.24;55.77;101254.63;4987811;28;20066;-76
2022/04/03 08:52:46;;;;;;;5.65;3.00;;;7.70;64.90;;;6.02;53.15;101255.69;4995287;28;20120;-76
2022/04/03 08:55:14;;;;;;;7.47;2.97;;;7.70;64.20;;;5.88;53.68;101261.41;4994754;28;20034;-76
2022/04/03 08:57:42;;;;;;;7.07;2.25;;;7.70;65.10;;;5.74;53.29;101259.09;4994365;28;20121;-76
2022/04/03 09:00:13;;;;;;;6.00;2.33;;;7.60;65.50;;;5.62;54.84;101259.16;4987577;28;20125;-76
2022/04/03 09:02:41;;;;;;;5.90;2.40;;;7.50;64.70;;;5.63;55.85;101265.41;4997868;28;20050;-76
2022/04/03 09:05:10;;;;;;;4.65;2.28;;;7.40;66.10;;;5.55;55.56;101262.53;4994569;28;20057;-76
2022/04/03 09:07:42;;;;;;;4.80;2.33;;;7.40;67.40;;;5.51;55.51;101271.91;5002630;28;20100;-76
2022/04/03 09:10:13;;;;;;;4.55;2.15;;;7.40;67.50;;;5.45;55.05;101266.03;4995251;28;20046;-75
2022/04/03 09:12:48;;;;;;;7.97;2.45;;;7.40;67.00;;;5.45;55.52;101268.72;4993642;28;20399;-76
2022/04/03 09:15:19;;;;;;;9.15;2.67;;;7.40;67.90;;;5.35;56.32;101266.94;4993426;28;20158;-76
2022/04/03 09:17:49;;;;;;;6.88;2.33;;;7.40;67.30;;;5.36;58.10;101263.28;4999289;28;20153;-76
2022/04/03 09:20:22;;;;;;;6.33;2.57;;;7.40;68.40;;;5.39;57.76;101268.41;5000154;28;20046;-76
2022/04/03 09:22:53;;;;;;;5.38;2.80;;;7.40;68.60;;;5.31;58.63;101277.16;4996640;28;20034;-76
2022/04/03 09:25:26;;;;;;;7.28;3.00;;;7.40;68.60;;;5.24;58.73;101273.28;4996009;28;20041;-76
2022/04/03 09:27:55;;;;;;;5.78;2.85;;;7.30;69.40;;;5.18;58.39;101268.38;5005221;28;20046;-76
2022/04/03 09:30:24;;;;;;;5.45;2.67;;;7.20;68.90;;;5.12;58.61;101264.38;5008675;28;20057;-76
2022/04/03 09:32:54;;;;;;;6.63;2.47;;;7.10;68.50;;;5.10;58.42;101269.03;5012547;28;20808;-76
2022/04/03 09:35:26;;;;;;;6.05;2.75;;;7.20;69.10;;;5.13;58.88;101273.34;4993568;28;20085;-76
2022/04/03 09:38:12;;;;;;;4.47;2.40;;;7.20;68.90;;;5.15;59.74;101266.81;5001650;28;20133;-76
2022/04/03 09:40:43;;;;;;;5.13;2.38;;;7.20;69.40;;;5.15;58.02;101265.97;5012443;28;20042;-76
2022/04/03 09:43:19;;;;;;;;;;;7.20;68.50;;;5.21;58.59;101273.53;5011323;28;20373;-76
2022/04/03 09:45:49;;;;;;;5.88;2.75;;;7.20;69.30;;;5.19;59.57;101272.81;5000253;28;19925;-76
2022/04/03 09:48:29;;;;;;;6.78;3.45;;;7.30;70.00;;;5.16;59.23;101273.06;5003710;28;20042;-76
2022/04/03 09:51:05;;;;;;;5.43;2.60;;;7.10;70.10;;;5.09;59.34;101268.19;5010147;28;20077;-76
2022/04/03 09:53:46;;;;;;;8.82;3.10;;;7.10;70.80;;;5.13;59.56;101262.56;5007532;28;20076;-76
2022/04/03 09:56:26;;;;;;;4.93;2.70;;;7.10;70.30;;;5.16;59.08;101267.66;5011747;28;20052;-75
2022/04/03 09:59:02;;;;;;;8.90;2.60;;;7.10;69.70;;;5.16;58.70;101267.66;5012701;28;20046;-75
2022/04/03 10:01:35;;;;;;;6.18;2.90;;;7.10;69.00;;;5.14;59.28;101275.91;5011782;28;20050;-75
2022/04/03 10:04:04;;;;;;;8.95;2.75;;;7.10;70.00;;;5.18;59.55;101266.56;5010821;28;20238;-76
2022/04/03 10:06:35;;;;;;;6.93;2.72;;;7.10;70.20;;;5.16;58.67;101273.06;4993133;28;20639;-76
2022/04/03 10:09:04;;;;;;;10.15;2.97;;;7.10;69.00;;;5.20;60.30;101274.53;4991568;28;20491;-76
2022/04/03 10:11:31;;;;;;;7.15;2.90;;;7.10;70.40;;;5.23;59.20;101264.31;4992109;28;20144;-76
2022/04/03 10:13:59;;;;;;;8.07;2.92;;;7.10;70.00;;;5.22;58.43;101265.31;4992717;28;20046;-76
2022/04/03 10:16:26;;;;;;;7.20;3.10;;;7.20;68.50;;;5.26;59.33;101257.81;4994839;28;20058;-76
2022/04/03 10:18:53;;;;;;;6.53;2.80;;;7.10;70.10;;;5.35;59.12;101256.16;5012347;28;20046;-76
2022/04/03 10:21:28;;;;;;;9.38;4.03;;;7.10;69.60;;;5.39;59.19;101252.22;5011584;28;20132;-75
2022/04/03 10:24:00;;;;;;;5.97;2.97;;;7.10;69.40;;;5.37;56.44;101244.25;5011136;28;20045;-76
2022/04/03 10:26:29;;;;;;;;;;;7.10;68.10;;;5.35;58.21;101248.94;5012714;28;20509;-75
2022/04/03 10:28:57;;;;;;;9.52;3.63;;;7.10;69.00;;;5.42;59.42;101246.53;5005828;28;20345;-76